Time;durP1;ratioP1;P1;durP2;ratioP2;P2;SDS_P1;SDS_P2;PMS_P1;PMS_P2;Temp;Humidity;BMP_temperature;BMP_pressure;BME280_temperature;BME280_humidity;BME280_pressure;Samples;Min_cycle;Max_cycle;Signal;HPM_P1;HPM_P2
2022/05/11 00:00:18;;;;;;;6.83;6.33;;;20.20;29.10;;;;;;10351908;28;20242;-74
2022/05/11 00:05:21;;;;;;;6.87;6.27;;;20.10;29.10;;;;;;10350355;28;20230;-74
2022/05/11 00:10:26;;;;;;;6.40;5.90;;;20.10;28.80;;;;;;10352335;28;20268;-74
2022/05/11 00:15:29;;;;;;;7.23;6.70;;;20.10;29.20;;;;;;10348612;28;20235;-74
2022/05/11 00:20:33;;;;;;;7.93;7.23;;;20.00;29.00;;;;;;10349800;28;20722;-74
2022/05/11 00:25:37;;;;;;;6.37;5.87;;;19.90;29.10;;;;;;10352008;28;20242;-74
2022/05/11 00:30:40;;;;;;;7.03;6.53;;;19.90;29.40;;;;;;10350450;28;20317;-74
2022/05/11 00:35:46;;;;;;;7.20;6.60;;;19.90;29.20;;;;;;10350649;28;20222;-74
2022/05/11 00:40:53;;;;;;;8.17;7.47;;;19.80;29.40;;;;;;10350305;28;20572;-74
2022/05/11 00:46:08;;;;;;;7.90;7.30;;;19.80;29.80;;;;;;10354940;28;20228;-74
2022/05/11 00:51:13;;;;;;;6.80;6.30;;;19.70;30.00;;;;;;10360670;28;20221;-74
2022/05/11 00:56:17;;;;;;;7.00;6.50;;;19.60;29.40;;;;;;10359017;28;20230;-74
2022/05/11 01:01:20;;;;;;;7.03;6.47;;;19.50;29.70;;;;;;10357414;28;20237;-74
2022/05/11 01:06:24;;;;;;;7.67;6.90;;;19.40;29.40;;;;;;10358843;28;20301;-74
2022/05/11 01:11:29;;;;;;;8.13;7.43;;;19.30;29.60;;;;;;10358802;28;20578;-74
2022/05/11 01:16:33;;;;;;;7.30;6.80;;;19.30;30.10;;;;;;10353472;28;20258;-73
2022/05/11 01:21:44;;;;;;;7.90;7.20;;;19.30;29.80;;;;;;10357910;28;20301;-74
2022/05/11 01:26:48;;;;;;;7.77;7.27;;;19.20;30.80;;;;;;10357562;28;20230;-74
2022/05/11 01:31:51;;;;;;;7.90;7.20;;;19.20;30.30;;;;;;10358110;28;20230;-74
2022/05/11 01:36:56;;;;;;;7.60;6.90;;;19.20;30.00;;;;;;10356123;28;20800;-74
2022/05/11 01:42:00;;;;;;;7.70;7.07;;;19.10;30.10;;;;;;10354070;28;20226;-74
2022/05/11 01:47:04;;;;;;;6.73;6.20;;;19.10;30.60;;;;;;10357117;28;20222;-74
2022/05/11 01:52:08;;;;;;;7.60;7.00;;;19.10;30.30;;;;;;10355571;28;20703;-74
2022/05/11 01:57:12;;;;;;;7.07;6.47;;;19.10;30.40;;;;;;10357461;28;20233;-74
2022/05/11 02:02:16;;;;;;;7.20;6.70;;;19.10;30.90;;;;;;10357222;28;20292;-74
2022/05/11 02:12:41;;;;;;;6.23;5.83;;;19.10;30.80;;;;;;10356633;28;20230;-74
2022/05/11 02:17:46;;;;;;;8.00;7.03;;;19.00;30.90;;;;;;10352807;28;20222;-74
2022/05/11 02:22:49;;;;;;;6.33;5.93;;;19.10;30.80;;;;;;10356790;28;20237;-74
2022/05/11 02:27:55;;;;;;;6.93;6.43;;;19.00;30.70;;;;;;10353719;28;20342;-74
2022/05/11 02:32:58;;;;;;;6.57;6.17;;;19.00;31.40;;;;;;10354547;28;20730;-74
2022/05/11 02:38:04;;;;;;;6.80;6.30;;;19.00;31.00;;;;;;10353645;28;20228;-74
2022/05/11 02:43:10;;;;;;;6.63;6.20;;;19.00;31.30;;;;;;10351541;28;20229;-74
2022/05/11 02:48:16;;;;;;;8.00;7.20;;;18.90;31.30;;;;;;10353780;28;20226;-74
2022/05/11 02:53:20;;;;;;;7.17;6.67;;;18.90;31.30;;;;;;10354635;28;20230;-74
2022/05/11 02:58:27;;;;;;;6.60;6.00;;;18.90;31.10;;;;;;10351538;28;20592;-74
2022/05/11 03:03:33;;;;;;;7.23;6.63;;;18.90;31.60;;;;;;10354336;28;20245;-74
2022/05/11 03:08:38;;;;;;;7.30;6.70;;;18.80;31.10;;;;;;10352159;28;20222;-74
2022/05/11 03:13:43;;;;;;;6.27;5.87;;;18.80;31.30;;;;;;10354184;28;20245;-74
2022/05/11 03:18:46;;;;;;;5.90;5.50;;;18.70;31.50;;;;;;10349472;28;20222;-74
2022/05/11 03:23:49;;;;;;;6.63;6.10;;;18.70;31.30;;;;;;10355310;28;21246;-74
2022/05/11 03:28:54;;;;;;;6.87;6.37;;;18.70;31.40;;;;;;10351537;28;20238;-74
2022/05/11 03:39:19;;;;;;;7.17;6.47;;;18.60;31.50;;;;;;10352524;28;20221;-74
2022/05/11 03:44:23;;;;;;;6.80;6.20;;;18.50;31.70;;;;;;10346453;28;20244;-74
2022/05/11 03:49:27;;;;;;;7.37;6.67;;;18.40;31.90;;;;;;10346805;28;20234;-74
2022/05/11 03:54:31;;;;;;;6.60;5.97;;;18.40;31.60;;;;;;10348651;28;20289;-74
2022/05/11 03:59:36;;;;;;;6.17;5.73;;;18.30;31.80;;;;;;10348631;28;20234;-74
2022/05/11 04:04:39;;;;;;;7.20;6.60;;;18.20;32.20;;;;;;10346548;28;20234;-74
2022/05/11 04:09:42;;;;;;;6.83;6.33;;;18.20;31.90;;;;;;10349452;28;20234;-74
2022/05/11 04:14:46;;;;;;;7.20;6.50;;;18.10;32.10;;;;;;10347756;28;20257;-74
2022/05/11 04:19:50;;;;;;;6.53;6.03;;;18.00;32.60;;;;;;10346986;28;20328;-74
2022/05/11 04:24:53;;;;;;;6.93;6.23;;;18.00;32.20;;;;;;10353935;28;20231;-74
2022/05/11 04:29:58;;;;;;;6.53;6.07;;;17.90;32.30;;;;;;10355268;28;20226;-74
2022/05/11 04:35:01;;;;;;;6.40;5.90;;;17.80;33.00;;;;;;10356659;28;20230;-74
2022/05/11 04:40:08;;;;;;;6.13;5.73;;;17.80;32.70;;;;;;10347137;28;20214;-74
2022/05/11 04:45:20;;;;;;;6.50;6.00;;;17.80;33.10;;;;;;10352792;28;20262;-75
2022/05/11 04:50:25;;;;;;;6.60;6.00;;;17.80;33.80;;;;;;10314254;28;1286039;-74
2022/05/11 04:55:28;;;;;;;6.13;5.63;;;17.80;33.30;;;;;;10354864;28;20230;-74
2022/05/11 05:00:33;;;;;;;6.13;5.73;;;17.80;33.30;;;;;;10359083;28;20230;-74
2022/05/11 05:05:37;;;;;;;6.30;5.70;;;17.80;34.00;;;;;;10357993;28;20245;-74
2022/05/11 05:10:41;;;;;;;6.17;5.63;;;17.90;33.50;;;;;;10356995;28;20234;-73
2022/05/11 05:15:45;;;;;;;6.13;5.63;;;18.00;34.80;;;;;;10356925;28;20231;-73
2022/05/11 05:20:48;;;;;;;6.27;5.70;;;18.10;34.70;;;;;;10350279;28;20221;-73
2022/05/11 05:25:52;;;;;;;6.60;5.90;;;18.20;34.30;;;;;;10356005;28;20234;-74
2022/05/11 05:31:11;;;;;;;5.80;5.40;;;18.20;34.30;;;;;;10357388;28;20223;-74
2022/05/11 05:36:14;;;;;;;5.83;5.33;;;18.40;35.10;;;;;;10351650;28;20716;-74
2022/05/11 05:41:18;;;;;;;5.90;5.40;;;18.50;34.60;;;;;;10349224;28;20723;-74
2022/05/11 05:46:24;;;;;;;5.77;5.27;;;18.60;34.70;;;;;;10352697;28;20230;-74
2022/05/11 05:51:27;;;;;;;5.73;5.27;;;18.70;35.40;;;;;;10353671;28;20257;-74
2022/05/11 05:56:32;;;;;;;5.80;5.30;;;18.80;35.00;;;;;;10351552;28;20644;-74
2022/05/11 06:01:38;;;;;;;5.80;5.23;;;18.90;35.00;;;;;;10350300;28;20233;-74
2022/05/11 06:06:41;;;;;;;6.10;5.50;;;19.10;35.70;;;;;;10349289;28;20226;-74
2022/05/11 06:11:45;;;;;;;5.67;5.17;;;19.20;34.90;;;;;;10356230;28;20241;-74
2022/05/11 06:16:50;;;;;;;5.10;4.70;;;19.40;35.00;;;;;;10347174;28;20222;-74
2022/05/11 06:21:53;;;;;;;5.10;4.63;;;19.50;35.10;;;;;;10354176;28;20226;-74
2022/05/11 06:27:02;;;;;;;5.27;4.87;;;19.70;35.00;;;;;;10351331;28;20242;-74
2022/05/11 06:32:08;;;;;;;5.77;5.20;;;19.90;35.00;;;;;;10355732;28;20946;-74
2022/05/11 06:37:12;;;;;;;6.30;5.50;;;20.00;35.40;;;;;;10348631;28;20222;-74
2022/05/11 06:42:15;;;;;;;5.67;5.27;;;20.30;35.20;;;;;;10351396;28;20233;-74
2022/05/11 06:47:20;;;;;;;5.70;4.93;;;20.40;35.10;;;;;;10353068;28;20219;-74
2022/05/11 06:52:23;;;;;;;5.13;4.67;;;20.70;35.50;;;;;;10352272;28;20238;-74
2022/05/11 07:02:48;;;;;;;5.43;5.03;;;21.10;35.10;;;;;;10355999;28;20233;-74
2022/05/11 07:07:52;;;;;;;5.20;4.80;;;21.30;35.40;;;;;;10354822;28;20222;-74
2022/05/11 07:12:56;;;;;;;5.40;4.97;;;21.60;35.40;;;;;;10354957;28;20249;-74
2022/05/11 07:18:03;;;;;;;4.90;4.43;;;21.90;35.50;;;;;;10353004;28;20237;-74
2022/05/11 07:23:08;;;;;;;4.50;3.87;;;22.20;35.60;;;;;;10352704;28;20230;-74
2022/05/11 07:28:12;;;;;;;4.77;4.37;;;22.50;34.90;;;;;;10353762;28;20222;-73
2022/05/11 07:33:16;;;;;;;4.37;4.07;;;22.70;34.30;;;;;;10352636;28;20712;-74
2022/05/11 07:38:19;;;;;;;3.80;3.60;;;23.00;33.80;;;;;;10346529;28;20671;-74
2022/05/11 07:43:23;;;;;;;4.03;3.77;;;23.20;33.60;;;;;;10347760;28;20268;-74
2022/05/11 07:48:28;;;;;;;4.57;4.17;;;23.40;33.10;;;;;;10351024;28;20638;-74
2022/05/11 07:53:32;;;;;;;4.23;3.93;;;23.60;33.10;;;;;;10350773;28;20237;-74
2022/05/11 08:03:57;;;;;;;4.50;3.80;;;24.00;32.80;;;;;;10351542;28;20222;-74
2022/05/11 08:09:00;;;;;;;4.30;4.00;;;24.30;32.40;;;;;;10350032;28;20222;-74
2022/05/11 08:14:03;;;;;;;4.00;3.70;;;24.60;32.20;;;;;;10350387;28;20222;-74
2022/05/11 08:19:08;;;;;;;3.87;3.57;;;24.80;32.00;;;;;;10349167;28;20229;-74
2022/05/11 08:24:11;;;;;;;3.83;3.63;;;25.00;31.30;;;;;;10350559;28;20296;-74
2022/05/11 08:33:19;;;;;;;4.20;3.90;;;25.20;31.10;;;;;;10351244;28;20240;-74
2022/05/11 08:34:40;;;;;;;3.93;3.57;;;25.40;30.40;;;;;;10348529;28;20273;-74
2022/05/11 08:39:43;;;;;;;3.70;3.50;;;25.60;29.70;;;;;;10347012;28;20218;-74
2022/05/11 08:44:50;;;;;;;4.03;3.60;;;25.80;29.70;;;;;;10346517;28;20234;-74
2022/05/11 08:49:59;;;;;;;3.83;3.53;;;25.90;29.10;;;;;;10351026;28;20223;-74
2022/05/11 08:55:10;;;;;;;4.03;3.73;;;26.10;29.20;;;;;;10349675;28;21123;-74
2022/05/11 09:00:16;;;;;;;4.47;4.10;;;26.30;28.30;;;;;;10352116;28;20215;-74
2022/05/11 09:05:26;;;;;;;4.17;3.97;;;26.50;28.90;;;;;;10350136;28;20245;-74
2022/05/11 09:10:31;;;;;;;4.33;3.90;;;26.60;28.20;;;;;;10356709;28;20254;-74
2022/05/11 09:15:49;;;;;;;4.30;4.00;;;26.80;28.80;;;;;;10358043;28;20238;-74
2022/05/11 09:20:55;;;;;;;4.03;3.73;;;26.90;28.00;;;;;;10355055;28;20218;-74
2022/05/11 09:26:00;;;;;;;4.50;4.07;;;27.00;27.70;;;;;;10357938;28;20234;-74
2022/05/11 09:31:06;;;;;;;4.67;3.93;;;27.00;27.30;;;;;;10355810;28;20232;-74
2022/05/11 09:36:12;;;;;;;4.23;3.93;;;27.00;27.70;;;;;;10355404;28;20234;-74
2022/05/11 09:41:31;;;;;;;4.13;3.83;;;27.10;27.50;;;;;;10352155;28;20281;-74
2022/05/11 09:46:35;;;;;;;3.73;3.53;;;27.20;27.80;;;;;;10351409;28;20222;-74
2022/05/11 09:51:55;;;;;;;3.60;3.40;;;27.40;27.10;;;;;;10355389;28;20719;-74
2022/05/11 09:57:01;;;;;;;3.97;3.67;;;27.60;27.10;;;;;;10355307;28;20218;-74
2022/05/11 10:02:21;;;;;;;3.40;3.20;;;27.70;26.10;;;;;;10354543;28;20222;-74
2022/05/11 10:07:27;;;;;;;3.43;3.23;;;27.80;25.30;;;;;;10353269;28;20241;-74
2022/05/11 10:12:36;;;;;;;3.73;3.43;;;28.00;24.70;;;;;;10356410;28;20573;-74
2022/05/11 10:23:09;;;;;;;3.30;3.10;;;28.10;25.00;;;;;;10353833;28;20230;-74
2022/05/11 10:28:24;;;;;;;3.00;2.80;;;28.20;23.00;;;;;;10354019;28;20223;-74
2022/05/11 10:33:47;;;;;;;3.53;3.23;;;28.20;22.60;;;;;;10354009;28;20450;-74
2022/05/11 10:39:10;;;;;;;3.57;3.27;;;28.20;22.70;;;;;;10347999;28;20228;-74
2022/05/11 10:44:35;;;;;;;3.27;3.07;;;28.20;23.30;;;;;;10350563;28;20222;-74
2022/05/11 10:50:00;;;;;;;3.47;3.17;;;28.30;23.50;;;;;;10351693;28;20230;-74
2022/05/11 10:55:17;;;;;;;3.93;3.57;;;28.40;23.90;;;;;;10349625;28;20226;-74
2022/05/11 11:00:23;;;;;;;3.23;3.03;;;28.50;22.40;;;;;;10353847;28;20244;-74
2022/05/11 11:05:32;;;;;;;3.40;3.17;;;28.60;23.10;;;;;;10352555;28;20238;-74
2022/05/11 11:10:44;;;;;;;3.13;2.93;;;28.60;23.00;;;;;;10350500;28;20230;-74
2022/05/11 11:15:47;;;;;;;3.27;2.80;;;28.70;22.70;;;;;;10349187;28;20230;-74
2022/05/11 11:21:01;;;;;;;3.30;3.10;;;28.80;23.10;;;;;;10350748;28;20741;-74
2022/05/11 11:26:09;;;;;;;3.20;3.00;;;29.00;23.40;;;;;;10338637;28;20258;-75
2022/05/11 11:31:19;;;;;;;3.30;2.50;;;29.20;22.10;;;;;;10322326;28;20229;-74
2022/05/11 11:36:30;;;;;;;2.37;2.27;;;29.30;21.20;;;;;;10338030;28;20265;-74
2022/05/11 11:42:02;;;;;;;2.50;2.30;;;29.50;19.70;;;;;;10339656;28;20226;-74
2022/05/11 11:47:40;;;;;;;2.20;2.10;;;29.60;21.40;;;;;;10336678;28;20222;-73
2022/05/11 11:52:46;;;;;;;2.27;2.17;;;29.70;21.00;;;;;;10333394;28;20226;-73
2022/05/11 11:57:55;;;;;;;2.90;2.70;;;29.80;20.60;;;;;;10337538;28;20577;-73
2022/05/11 12:03:00;;;;;;;2.90;2.60;;;29.80;19.50;;;;;;10331181;28;20230;-74
2022/05/11 12:19:10;;;;;;;2.63;2.43;;;29.90;19.30;;;;;;10332419;28;20237;-73
2022/05/11 12:24:23;;;;;;;2.87;2.70;;;29.90;19.00;;;;;;10331815;28;20603;-74
2022/05/11 12:34:49;;;;;;;3.10;2.90;;;30.10;19.60;;;;;;10336940;28;21023;-75
2022/05/11 12:40:00;;;;;;;3.10;2.80;;;30.10;19.70;;;;;;10342480;28;20233;-74
2022/05/11 12:45:10;;;;;;;2.70;2.60;;;30.10;19.00;;;;;;10343034;28;20300;-74
2022/05/11 12:50:20;;;;;;;3.33;2.70;;;30.10;18.30;;;;;;10349460;28;20667;-74
2022/05/11 12:55:31;;;;;;;4.40;3.73;;;30.10;18.10;;;;;;10348704;28;20241;-75
2022/05/11 13:00:36;;;;;;;3.07;2.80;;;30.10;18.70;;;;;;10345452;28;20302;-73
2022/05/11 13:05:40;;;;;;;2.83;2.63;;;30.10;18.50;;;;;;10345877;28;20901;-75
2022/05/11 13:10:45;;;;;;;2.70;2.60;;;30.00;18.30;;;;;;10344132;28;20269;-73
2022/05/11 13:15:52;;;;;;;2.60;2.40;;;30.10;18.10;;;;;;10338694;28;20250;-73
2022/05/11 13:20:58;;;;;;;4.40;2.70;;;30.10;18.10;;;;;;10341904;28;20230;-74
2022/05/11 13:26:03;;;;;;;2.63;2.53;;;30.20;18.30;;;;;;10340147;28;20242;-73
2022/05/11 13:31:27;;;;;;;2.80;2.60;;;30.30;18.40;;;;;;10346568;28;20230;-74
2022/05/11 13:36:40;;;;;;;3.00;2.70;;;30.30;18.40;;;;;;10350713;28;20341;-73
2022/05/11 13:41:58;;;;;;;2.63;2.40;;;30.40;18.10;;;;;;10354252;28;21099;-73
2022/05/11 13:52:52;;;;;;;3.67;2.67;;;30.40;17.80;;;;;;10355635;28;20225;-73
2022/05/11 13:57:55;;;;;;;3.43;2.77;;;30.50;17.30;;;;;;10355511;28;20230;-73
2022/05/11 14:03:02;;;;;;;2.80;2.70;;;30.50;18.20;;;;;;10353785;28;20234;-73
2022/05/11 14:08:06;;;;;;;3.07;2.87;;;30.50;17.60;;;;;;10356609;28;20226;-73
2022/05/11 14:13:09;;;;;;;3.10;2.90;;;30.50;17.50;;;;;;10355485;28;20233;-73
2022/05/11 14:18:16;;;;;;;4.50;2.77;;;30.50;17.60;;;;;;10353477;28;20226;-72
2022/05/11 14:23:19;;;;;;;2.60;2.50;;;30.50;17.30;;;;;;10354650;28;20234;-73
2022/05/11 14:28:23;;;;;;;2.97;2.70;;;30.50;17.80;;;;;;10348370;28;20230;-75
2022/05/11 14:33:28;;;;;;;3.10;2.80;;;30.60;17.40;;;;;;10355614;28;20241;-75
2022/05/11 14:38:31;;;;;;;3.20;2.90;;;30.60;17.50;;;;;;10360020;28;20226;-75
2022/05/11 14:43:34;;;;;;;3.00;2.70;;;30.60;17.50;;;;;;10362663;28;20230;-75
2022/05/11 14:48:40;;;;;;;3.30;3.00;;;30.70;17.70;;;;;;10361103;28;20469;-75
2022/05/11 14:53:45;;;;;;;3.00;2.80;;;30.60;17.10;;;;;;10360335;28;20230;-75
2022/05/11 15:04:22;;;;;;;2.90;2.70;;;30.70;17.10;;;;;;10354711;28;20257;-74
2022/05/11 15:09:26;;;;;;;2.40;2.20;;;30.70;16.20;;;;;;10363929;28;20706;-75
2022/05/11 15:14:30;;;;;;;3.07;2.60;;;30.70;16.40;;;;;;10355156;28;20236;-74
2022/05/11 15:19:35;;;;;;;3.07;2.77;;;30.70;16.40;;;;;;10357477;28;20234;-74
2022/05/11 15:24:38;;;;;;;2.63;2.43;;;30.60;16.10;;;;;;10357896;28;20246;-75
2022/05/11 15:29:43;;;;;;;2.70;2.50;;;30.60;16.20;;;;;;10355303;28;20218;-74
2022/05/11 15:34:48;;;;;;;2.80;2.60;;;30.60;16.20;;;;;;10355773;28;20230;-75
2022/05/11 15:39:52;;;;;;;2.50;2.40;;;30.60;15.30;;;;;;10358060;28;20232;-74
2022/05/11 15:44:56;;;;;;;2.70;2.50;;;30.60;16.20;;;;;;10356072;28;20231;-75
2022/05/11 15:50:03;;;;;;;2.57;2.37;;;30.60;15.90;;;;;;10357424;28;20230;-75
2022/05/11 15:55:08;;;;;;;2.80;2.60;;;30.60;15.40;;;;;;10359912;28;20218;-75
2022/05/11 16:00:16;;;;;;;2.60;2.40;;;30.60;15.90;;;;;;10356574;28;20217;-75
2022/05/11 16:05:24;;;;;;;2.40;2.17;;;30.60;15.20;;;;;;10351962;28;20249;-75
2022/05/11 16:10:27;;;;;;;2.50;2.30;;;30.60;14.70;;;;;;10358313;28;20225;-74
2022/05/11 16:15:31;;;;;;;2.10;2.00;;;30.50;15.30;;;;;;10361704;28;20230;-75
2022/05/11 16:20:35;;;;;;;2.23;2.10;;;30.50;15.00;;;;;;10362626;28;20226;-75
2022/05/11 16:25:38;;;;;;;2.50;2.10;;;30.50;14.70;;;;;;10362680;28;20344;-75
2022/05/11 16:30:42;;;;;;;2.40;2.20;;;30.50;15.00;;;;;;10366695;28;20252;-75
2022/05/11 16:35:47;;;;;;;2.20;2.10;;;30.50;14.70;;;;;;10356723;28;20272;-75
2022/05/11 16:40:50;;;;;;;2.40;2.20;;;30.40;14.30;;;;;;10360235;28;20237;-75
2022/05/11 16:45:53;;;;;;;2.00;1.90;;;30.40;14.30;;;;;;10361695;28;20334;-75
2022/05/11 16:50:59;;;;;;;2.27;2.07;;;30.30;14.40;;;;;;10364204;28;20287;-75
2022/05/11 16:56:08;;;;;;;2.77;2.17;;;30.30;14.50;;;;;;10361548;28;20226;-75
2022/05/11 17:01:12;;;;;;;2.20;2.00;;;30.20;14.40;;;;;;10358646;28;20230;-75
2022/05/11 17:06:16;;;;;;;2.40;2.20;;;30.20;14.70;;;;;;10357135;28;20218;-75
2022/05/11 17:11:21;;;;;;;2.50;2.30;;;30.20;14.20;;;;;;10371610;28;20230;-75
2022/05/11 17:16:25;;;;;;;2.20;2.10;;;30.30;14.50;;;;;;10361063;28;20674;-75
2022/05/11 17:21:32;;;;;;;2.90;2.37;;;30.20;15.10;;;;;;10363178;28;20226;-75
2022/05/11 17:26:36;;;;;;;2.67;2.47;;;30.20;15.10;;;;;;10349278;28;20253;-74
2022/05/11 17:31:40;;;;;;;2.77;2.57;;;30.20;14.80;;;;;;10348413;28;20233;-74
2022/05/11 17:36:45;;;;;;;2.60;2.40;;;30.20;14.90;;;;;;10348605;28;20234;-74
2022/05/11 17:41:48;;;;;;;2.40;2.30;;;30.20;14.90;;;;;;10353560;28;20227;-74
2022/05/11 17:46:51;;;;;;;2.57;2.37;;;30.10;14.90;;;;;;10354780;28;20230;-74
2022/05/11 17:51:56;;;;;;;2.80;2.60;;;30.00;15.00;;;;;;10341354;28;20222;-75
2022/05/11 17:56:59;;;;;;;2.50;2.30;;;29.90;14.90;;;;;;10346822;28;20241;-75
2022/05/11 18:02:05;;;;;;;2.60;2.40;;;29.80;15.20;;;;;;10343731;28;21065;-75
2022/05/11 18:07:10;;;;;;;2.47;2.27;;;29.70;15.30;;;;;;10338314;28;21495;-75
2022/05/11 18:12:13;;;;;;;2.70;2.50;;;29.70;15.80;;;;;;10344817;28;20301;-75
2022/05/11 18:17:17;;;;;;;2.57;2.47;;;29.70;15.90;;;;;;10347109;28;20300;-75
2022/05/11 18:22:24;;;;;;;2.77;2.60;;;29.60;16.40;;;;;;10349720;28;20237;-75
2022/05/11 18:27:27;;;;;;;2.60;2.40;;;29.50;16.30;;;;;;10353143;28;20226;-75
2022/05/11 18:32:30;;;;;;;3.10;2.60;;;29.50;16.40;;;;;;10339053;28;20233;-74
2022/05/11 18:37:35;;;;;;;3.03;2.43;;;29.40;16.50;;;;;;10340862;28;20238;-74
2022/05/11 18:42:40;;;;;;;2.53;2.40;;;29.30;16.80;;;;;;10345659;28;20238;-75
2022/05/11 18:47:49;;;;;;;3.00;2.80;;;29.20;16.80;;;;;;10344641;28;20301;-76
2022/05/11 18:52:54;;;;;;;3.77;2.97;;;29.00;17.00;;;;;;10348584;28;20710;-75
2022/05/11 18:57:58;;;;;;;3.57;2.93;;;28.90;17.30;;;;;;10343339;28;20230;-75
2022/05/11 19:03:02;;;;;;;3.03;2.83;;;28.70;17.30;;;;;;10339783;28;20234;-75
2022/05/11 19:08:07;;;;;;;3.40;3.10;;;28.60;17.30;;;;;;10333613;28;20218;-74
2022/05/11 19:13:10;;;;;;;3.50;3.10;;;28.40;17.60;;;;;;10350898;28;20336;-76
2022/05/11 19:18:13;;;;;;;3.00;2.80;;;28.30;17.40;;;;;;10322296;28;20226;-76
2022/05/11 19:23:24;;;;;;;3.67;3.40;;;28.00;17.30;;;;;;10331151;28;20610;-75
2022/05/11 19:28:30;;;;;;;5.53;2.97;;;27.60;17.40;;;;;;10334777;28;20732;-74
2022/05/11 19:33:36;;;;;;;5.80;2.87;;;27.30;17.50;;;;;;10335606;28;20611;-74
2022/05/11 19:38:42;;;;;;;3.70;3.40;;;27.00;17.80;;;;;;10341455;28;20607;-74
2022/05/11 19:43:49;;;;;;;5.73;3.53;;;26.70;18.20;;;;;;10341423;28;20226;-75
2022/05/11 19:48:53;;;;;;;4.90;3.23;;;26.60;18.50;;;;;;10329710;28;20329;-75
2022/05/11 19:53:57;;;;;;;3.57;3.20;;;26.30;18.70;;;;;;10332065;28;20237;-75
2022/05/11 19:59:01;;;;;;;3.97;3.57;;;26.10;19.10;;;;;;10334774;28;20227;-76
2022/05/11 20:04:05;;;;;;;3.67;3.37;;;25.90;19.00;;;;;;10330805;28;20226;-76
2022/05/11 20:09:12;;;;;;;5.03;3.40;;;25.70;18.90;;;;;;10333786;28;20756;-76
2022/05/11 20:14:15;;;;;;;4.13;3.73;;;25.60;19.30;;;;;;10336141;28;20236;-74
2022/05/11 20:19:19;;;;;;;4.43;3.70;;;25.40;19.10;;;;;;10341402;28;20254;-77
2022/05/11 20:24:24;;;;;;;4.07;3.47;;;25.20;19.30;;;;;;10339633;28;20234;-76
2022/05/11 20:29:27;;;;;;;5.10;4.13;;;25.00;19.90;;;;;;10342499;28;20307;-76
2022/05/11 20:39:53;;;;;;;4.97;4.23;;;24.80;20.10;;;;;;10339386;28;20226;-76
2022/05/11 20:44:57;;;;;;;3.80;3.50;;;24.70;20.40;;;;;;10342537;28;20280;-76
2022/05/11 20:50:00;;;;;;;4.90;3.60;;;24.70;20.40;;;;;;10341148;28;20223;-76
2022/05/11 20:55:06;;;;;;;3.77;3.50;;;24.50;20.20;;;;;;10330005;28;20230;-75
2022/05/11 21:00:11;;;;;;;4.20;3.40;;;24.30;21.20;;;;;;10329858;28;20226;-75
2022/05/11 21:05:15;;;;;;;5.33;3.53;;;24.10;20.60;;;;;;10335038;28;20230;-76
2022/05/11 21:10:22;;;;;;;4.10;3.80;;;23.80;20.80;;;;;;10337038;28;20215;-76
2022/05/11 21:15:26;;;;;;;4.20;3.90;;;23.60;21.10;;;;;;10341843;28;20317;-76
2022/05/11 21:20:29;;;;;;;4.03;3.70;;;23.40;21.00;;;;;;10341285;28;20237;-75
2022/05/11 21:25:34;;;;;;;4.57;4.17;;;23.20;21.20;;;;;;10344617;28;20237;-75
2022/05/11 21:30:39;;;;;;;4.23;3.83;;;23.10;21.60;;;;;;10348395;28;20236;-75
2022/05/11 21:35:42;;;;;;;4.37;3.60;;;23.00;21.50;;;;;;10356673;28;20322;-76
2022/05/11 21:40:47;;;;;;;5.17;3.93;;;22.90;21.50;;;;;;10358719;28;20234;-75
2022/05/11 21:45:53;;;;;;;4.10;3.80;;;22.80;21.80;;;;;;10350182;28;20225;-75
2022/05/11 21:50:57;;;;;;;4.00;3.70;;;22.70;21.70;;;;;;10352215;28;20227;-75
2022/05/11 21:56:01;;;;;;;4.00;3.70;;;22.70;21.80;;;;;;10351418;28;20373;-75
2022/05/11 22:01:22;;;;;;;4.30;3.90;;;22.60;22.10;;;;;;10352234;28;20218;-75
2022/05/11 22:06:25;;;;;;;3.90;3.60;;;22.50;22.30;;;;;;10348353;28;20231;-76
2022/05/11 22:11:31;;;;;;;4.50;3.80;;;22.40;22.10;;;;;;10356109;28;20246;-75
2022/05/11 22:16:35;;;;;;;3.97;3.67;;;22.30;22.50;;;;;;10355589;28;20230;-75
2022/05/11 22:21:38;;;;;;;4.03;3.70;;;22.20;22.20;;;;;;10357627;28;20230;-75
2022/05/11 22:26:43;;;;;;;4.17;3.83;;;22.20;22.50;;;;;;10355199;28;20317;-75
2022/05/11 22:31:49;;;;;;;4.90;3.77;;;22.10;22.80;;;;;;10354460;28;20611;-75
2022/05/11 22:36:52;;;;;;;7.03;3.90;;;22.10;22.60;;;;;;10355307;28;20234;-75
2022/05/11 22:41:57;;;;;;;4.00;3.70;;;22.10;22.80;;;;;;10354001;28;20234;-76
2022/05/11 22:47:00;;;;;;;3.77;3.47;;;22.00;23.00;;;;;;10354228;28;20572;-75
2022/05/11 22:52:04;;;;;;;3.60;3.27;;;22.00;22.90;;;;;;10352877;28;20226;-75
2022/05/11 22:57:09;;;;;;;3.77;3.47;;;22.00;23.00;;;;;;10350691;28;20230;-75
2022/05/11 23:02:12;;;;;;;3.70;3.40;;;22.10;23.40;;;;;;10351057;28;20229;-75
2022/05/11 23:07:16;;;;;;;3.80;3.50;;;22.20;23.30;;;;;;10351000;28;20730;-75
2022/05/11 23:12:20;;;;;;;3.67;3.43;;;22.20;23.30;;;;;;10355538;28;20230;-76
2022/05/11 23:17:24;;;;;;;4.07;3.53;;;22.20;23.40;;;;;;10355933;28;20226;-75
2022/05/11 23:22:27;;;;;;;3.50;3.20;;;22.20;23.20;;;;;;10354402;28;20226;-75
2022/05/11 23:27:32;;;;;;;3.87;3.60;;;22.10;23.40;;;;;;10355279;28;20317;-75
2022/05/11 23:32:35;;;;;;;5.60;3.77;;;22.00;23.70;;;;;;10354144;28;20230;-75
2022/05/11 23:37:42;;;;;;;3.87;3.57;;;22.00;23.60;;;;;;10353870;28;20234;-75
2022/05/11 23:42:47;;;;;;;4.17;3.63;;;21.90;23.80;;;;;;10352917;28;20623;-75
2022/05/11 23:47:52;;;;;;;4.20;3.80;;;21.80;24.10;;;;;;10353339;28;20237;-75
2022/05/11 23:52:55;;;;;;;4.27;3.97;;;21.70;24.10;;;;;;10354855;28;20226;-75
2022/05/11 23:58:00;;;;;;;4.40;3.70;;;21.70;24.10;;;;;;10355025;28;20237;-76
